Weser, Texas
Current Conditions -  °F | °C
As of 6:55 PM on Wednesday 22 Oct 2014 (Local Time) from KBEA Reporting Station
Clear Clear  
Wind Chill: 79°   Ceiling: Unl
Heat Index: 80°   Visibility: 10mi
Dew Point: 60°   Wind: 7mph
Humidity: 52%   Direction: 130°SE
Pressure: 30.02"   Gusts: NA
Location:  28.6563°N, 97.4287°W
Report Text: KBEA 222355Z AUTO 13006KT 10SM CLR 26/15 A3002 RMK AO2 T02600154 10308 20260
Loading
Personal Weather Stations






























Interactive Weather Map
Tropical Storm Tracking
New forecast layout! Learn more

10-Day Weather Forecast

Advertisements
Track Severe Weather on mobile